sensor_id;sensor_type;location;lat;lon;timestamp;pressure;altitude;pressure_sealevel;temperature;humidity
75794;BME280;64418;47.536;19.074;2022-11-20T00:00:27;100080.84;;;1.80;86.03
75794;BME280;64418;47.536;19.074;2022-11-20T00:02:53;100072.13;;;1.78;85.74
75794;BME280;64418;47.536;19.074;2022-11-20T00:05:18;100074.44;;;1.73;84.63
75794;BME280;64418;47.536;19.074;2022-11-20T00:07:44;100061.25;;;1.72;85.72
75794;BME280;64418;47.536;19.074;2022-11-20T00:10:10;100058.72;;;1.70;85.90
75794;BME280;64418;47.536;19.074;2022-11-20T00:12:38;100050.41;;;1.73;86.56
75794;BME280;64418;47.536;19.074;2022-11-20T00:15:04;100044.69;;;1.68;85.61
75794;BME280;64418;47.536;19.074;2022-11-20T00:17:30;100059.34;;;1.64;85.17
75794;BME280;64418;47.536;19.074;2022-11-20T00:19:56;100054.03;;;1.64;85.93
75794;BME280;64418;47.536;19.074;2022-11-20T00:22:22;100049.53;;;1.65;85.96
75794;BME280;64418;47.536;19.074;2022-11-20T00:24:47;100040.81;;;1.63;85.86
75794;BME280;64418;47.536;19.074;2022-11-20T00:27:13;100059.69;;;1.61;85.48
75794;BME280;64418;47.536;19.074;2022-11-20T00:29:40;100070.03;;;1.64;86.31
75794;BME280;64418;47.536;19.074;2022-11-20T00:32:05;100070.34;;;1.61;85.71
75794;BME280;64418;47.536;19.074;2022-11-20T00:34:31;100065.03;;;1.61;85.99
75794;BME280;64418;47.536;19.074;2022-11-20T00:36:56;100056.84;;;1.63;85.89
75794;BME280;64418;47.536;19.074;2022-11-20T00:39:22;100065.69;;;1.63;85.72
75794;BME280;64418;47.536;19.074;2022-11-20T00:41:48;100069.50;;;1.61;85.34
75794;BME280;64418;47.536;19.074;2022-11-20T00:44:14;100092.25;;;1.65;86.31
75794;BME280;64418;47.536;19.074;2022-11-20T00:46:41;100096.41;;;1.67;86.37
75794;BME280;64418;47.536;19.074;2022-11-20T00:49:06;100086.91;;;1.65;85.64
75794;BME280;64418;47.536;19.074;2022-11-20T00:51:32;100071.03;;;1.63;86.25
75794;BME280;64418;47.536;19.074;2022-11-20T00:53:58;100068.03;;;1.66;86.42
75794;BME280;64418;47.536;19.074;2022-11-20T00:56:24;100063.84;;;1.64;86.00
75794;BME280;64418;47.536;19.074;2022-11-20T00:58:50;100060.87;;;1.67;87.00
75794;BME280;64418;47.536;19.074;2022-11-20T01:01:18;100062.03;;;1.64;86.59
75794;BME280;64418;47.536;19.074;2022-11-20T01:03:47;100067.37;;;1.64;86.47
75794;BME280;64418;47.536;19.074;2022-11-20T01:06:14;100072.56;;;1.66;87.00
75794;BME280;64418;47.536;19.074;2022-11-20T01:08:41;100069.19;;;1.64;87.01
75794;BME280;64418;47.536;19.074;2022-11-20T01:11:09;100069.19;;;1.64;87.16
75794;BME280;64418;47.536;19.074;2022-11-20T01:13:36;100067.84;;;1.60;87.51
75794;BME280;64418;47.536;19.074;2022-11-20T01:16:03;100067.00;;;1.59;87.80
75794;BME280;64418;47.536;19.074;2022-11-20T01:18:29;100070.81;;;1.57;87.53
75794;BME280;64418;47.536;19.074;2022-11-20T01:21:00;100069.00;;;1.57;87.88
75794;BME280;64418;47.536;19.074;2022-11-20T01:23:26;100073.50;;;1.57;88.09
75794;BME280;64418;47.536;19.074;2022-11-20T01:25:52;100077.84;;;1.58;88.15
75794;BME280;64418;47.536;19.074;2022-11-20T01:28:17;100080.50;;;1.58;88.50
75794;BME280;64418;47.536;19.074;2022-11-20T01:30:43;100069.84;;;1.58;88.28
75794;BME280;64418;47.536;19.074;2022-11-20T01:33:09;100067.84;;;1.60;88.75
75794;BME280;64418;47.536;19.074;2022-11-20T01:35:35;100015.09;;;1.28;88.82
75794;BME280;64418;47.536;19.074;2022-11-20T01:38:02;100060.53;;;1.62;88.93
75794;BME280;64418;47.536;19.074;2022-11-20T01:40:27;100051.34;;;1.64;88.88
75794;BME280;64418;47.536;19.074;2022-11-20T01:43:12;100038.84;;;1.65;89.00
75794;BME280;64418;47.536;19.074;2022-11-20T01:45:54;100038.00;;;1.64;88.84
75794;BME280;64418;47.536;19.074;2022-11-20T01:48:24;100045.03;;;1.65;88.91
75794;BME280;64418;47.536;19.074;2022-11-20T01:50:52;100041.19;;;1.68;89.05
75794;BME280;64418;47.536;19.074;2022-11-20T01:53:24;100049.72;;;1.71;89.19
75794;BME280;64418;47.536;19.074;2022-11-20T01:55:53;100047.37;;;1.68;88.74
75794;BME280;64418;47.536;19.074;2022-11-20T01:58:22;100031.03;;;1.71;89.19
75794;BME280;64418;47.536;19.074;2022-11-20T02:00:48;100026.69;;;1.70;89.25
75794;BME280;64418;47.536;19.074;2022-11-20T02:03:16;100036.22;;;1.73;89.41
75794;BME280;64418;47.536;19.074;2022-11-20T02:05:48;100033.37;;;1.74;89.09
75794;BME280;64418;47.536;19.074;2022-11-20T02:08:17;100024.38;;;1.75;89.34
75794;BME280;64418;47.536;19.074;2022-11-20T02:10:44;100023.03;;;1.71;89.14
75794;BME280;64418;47.536;19.074;2022-11-20T02:13:11;100030.37;;;1.69;89.08
75794;BME280;64418;47.536;19.074;2022-11-20T02:15:36;99992.00;;;1.44;89.05
75794;BME280;64418;47.536;19.074;2022-11-20T02:18:02;100042.41;;;1.73;89.08
75794;BME280;64418;47.536;19.074;2022-11-20T02:20:28;100044.37;;;1.71;88.97
75794;BME280;64418;47.536;19.074;2022-11-20T02:22:59;100040.72;;;1.72;89.09
75794;BME280;64418;47.536;19.074;2022-11-20T02:25:29;100035.38;;;1.72;89.02
75794;BME280;64418;47.536;19.074;2022-11-20T02:27:56;100029.06;;;1.73;89.16
75794;BME280;64418;47.536;19.074;2022-11-20T02:30:21;100044.06;;;1.74;89.04
75794;BME280;64418;47.536;19.074;2022-11-20T02:32:47;100040.41;;;1.75;89.15
75794;BME280;64418;47.536;19.074;2022-11-20T02:35:42;100043.06;;;1.75;88.75
75794;BME280;64418;47.536;19.074;2022-11-20T02:38:08;100028.56;;;1.78;89.14
75794;BME280;64418;47.536;19.074;2022-11-20T02:40:35;100019.41;;;1.80;89.07
75794;BME280;64418;47.536;19.074;2022-11-20T02:43:02;100008.72;;;1.80;89.05
75794;BME280;64418;47.536;19.074;2022-11-20T02:45:27;100023.72;;;1.81;89.26
75794;BME280;64418;47.536;19.074;2022-11-20T02:47:53;100019.41;;;1.80;88.90
75794;BME280;64418;47.536;19.074;2022-11-20T02:50:19;100008.03;;;1.78;88.99
75794;BME280;64418;47.536;19.074;2022-11-20T02:52:45;100016.75;;;1.80;88.99
75794;BME280;64418;47.536;19.074;2022-11-20T02:55:11;100013.37;;;1.78;89.09
75794;BME280;64418;47.536;19.074;2022-11-20T02:57:38;100021.56;;;1.77;88.86
75794;BME280;64418;47.536;19.074;2022-11-20T03:00:05;100023.06;;;1.79;89.06
75794;BME280;64418;47.536;19.074;2022-11-20T03:02:31;100011.41;;;1.80;89.18
75794;BME280;64418;47.536;19.074;2022-11-20T03:04:57;100012.00;;;1.74;88.82
75794;BME280;64418;47.536;19.074;2022-11-20T03:07:23;100001.34;;;1.74;88.70
75794;BME280;64418;47.536;19.074;2022-11-20T03:09:49;100000.34;;;1.75;88.29
75794;BME280;64418;47.536;19.074;2022-11-20T03:12:14;100007.38;;;1.76;88.44
75794;BME280;64418;47.536;19.074;2022-11-20T03:14:41;100002.69;;;1.78;88.83
75794;BME280;64418;47.536;19.074;2022-11-20T03:17:07;100004.38;;;1.79;88.72
75794;BME280;64418;47.536;19.074;2022-11-20T03:19:33;100004.06;;;1.82;88.92
75794;BME280;64418;47.536;19.074;2022-11-20T03:21:58;100002.38;;;1.81;88.65
75794;BME280;64418;47.536;19.074;2022-11-20T03:24:25;100006.72;;;1.82;88.51
75794;BME280;64418;47.536;19.074;2022-11-20T03:26:50;100018.38;;;1.81;88.32
75794;BME280;64418;47.536;19.074;2022-11-20T03:29:16;100019.22;;;1.82;88.32
75794;BME280;64418;47.536;19.074;2022-11-20T03:31:43;100030.75;;;1.82;88.41
75794;BME280;64418;47.536;19.074;2022-11-20T03:34:10;100037.09;;;1.81;87.84
75794;BME280;64418;47.536;19.074;2022-11-20T03:36:37;100037.78;;;1.83;88.24
75794;BME280;64418;47.536;19.074;2022-11-20T03:39:03;100023.72;;;1.81;87.59
75794;BME280;64418;47.536;19.074;2022-11-20T03:41:31;100020.06;;;1.82;87.82
75794;BME280;64418;47.536;19.074;2022-11-20T03:43:58;100019.56;;;1.79;87.36
75794;BME280;64418;47.536;19.074;2022-11-20T03:46:25;100005.88;;;1.82;87.92
75794;BME280;64418;47.536;19.074;2022-11-20T03:48:54;99997.56;;;1.85;88.20
75794;BME280;64418;47.536;19.074;2022-11-20T03:51:21;100009.41;;;1.82;87.58
75794;BME280;64418;47.536;19.074;2022-11-20T03:53:48;100007.72;;;1.81;87.54
75794;BME280;64418;47.536;19.074;2022-11-20T03:56:16;100005.03;;;1.81;87.25
75794;BME280;64418;47.536;19.074;2022-11-20T03:58:42;100002.91;;;1.85;88.05
75794;BME280;64418;47.536;19.074;2022-11-20T04:01:10;99990.69;;;1.82;87.73
75794;BME280;64418;47.536;19.074;2022-11-20T04:03:37;100001.38;;;1.82;87.71
75794;BME280;64418;47.536;19.074;2022-11-20T04:06:08;100006.72;;;1.82;87.58
75794;BME280;64418;47.536;19.074;2022-11-20T04:08:35;100008.41;;;1.83;87.26
75794;BME280;64418;47.536;19.074;2022-11-20T04:11:11;100005.72;;;1.83;87.68
75794;BME280;64418;47.536;19.074;2022-11-20T04:13:38;99999.22;;;1.86;87.89
75794;BME280;64418;47.536;19.074;2022-11-20T04:16:04;99998.56;;;1.84;87.88
75794;BME280;64418;47.536;19.074;2022-11-20T04:18:30;99995.06;;;1.83;87.95
75794;BME280;64418;47.536;19.074;2022-11-20T04:20:56;99998.25;;;1.87;88.46
75794;BME280;64418;47.536;19.074;2022-11-20T04:23:24;99994.56;;;1.88;89.05
75794;BME280;64418;47.536;19.074;2022-11-20T04:25:50;99983.72;;;1.89;89.25
75794;BME280;64418;47.536;19.074;2022-11-20T04:28:15;99971.37;;;1.88;88.95
75794;BME280;64418;47.536;19.074;2022-11-20T04:30:41;99967.69;;;1.89;88.79
75794;BME280;64418;47.536;19.074;2022-11-20T04:33:07;99965.03;;;1.89;88.69
75794;BME280;64418;47.536;19.074;2022-11-20T04:35:34;99969.03;;;1.93;89.12
75794;BME280;64418;47.536;19.074;2022-11-20T04:37:59;99964.72;;;1.92;88.82
75794;BME280;64418;47.536;19.074;2022-11-20T04:40:27;99957.69;;;1.91;88.43
75794;BME280;64418;47.536;19.074;2022-11-20T04:42:53;99971.72;;;1.93;88.39
75794;BME280;64418;47.536;19.074;2022-11-20T04:45:19;99973.53;;;1.93;88.12
75794;BME280;64418;47.536;19.074;2022-11-20T04:47:44;99976.06;;;1.94;88.08
75794;BME280;64418;47.536;19.074;2022-11-20T04:50:10;99970.72;;;1.94;88.66
75794;BME280;64418;47.536;19.074;2022-11-20T04:52:39;99975.22;;;1.94;88.27
75794;BME280;64418;47.536;19.074;2022-11-20T04:55:06;99954.69;;;1.94;88.53
75794;BME280;64418;47.536;19.074;2022-11-20T04:57:34;99945.84;;;1.94;88.55
75794;BME280;64418;47.536;19.074;2022-11-20T04:59:59;99937.00;;;1.93;88.73
75794;BME280;64418;47.536;19.074;2022-11-20T05:02:25;99938.69;;;1.94;88.77
75794;BME280;64418;47.536;19.074;2022-11-20T05:04:51;99944.00;;;1.94;89.09
75794;BME280;64418;47.536;19.074;2022-11-20T05:07:17;99940.34;;;1.96;89.20
75794;BME280;64418;47.536;19.074;2022-11-20T05:09:42;99947.53;;;1.95;89.00
75794;BME280;64418;47.536;19.074;2022-11-20T05:12:08;99941.34;;;1.94;89.10
75794;BME280;64418;47.536;19.074;2022-11-20T05:14:35;99953.03;;;1.93;88.60
75794;BME280;64418;47.536;19.074;2022-11-20T05:17:01;99962.06;;;1.92;88.78
75794;BME280;64418;47.536;19.074;2022-11-20T05:19:27;99958.38;;;1.93;89.08
75794;BME280;64418;47.536;19.074;2022-11-20T05:21:52;99952.19;;;1.93;88.62
75794;BME280;64418;47.536;19.074;2022-11-20T05:24:18;99952.69;;;1.97;89.19
75794;BME280;64418;47.536;19.074;2022-11-20T05:26:44;99947.34;;;1.97;89.19
75794;BME280;64418;47.536;19.074;2022-11-20T05:29:10;99941.72;;;2.00;89.17
75794;BME280;64418;47.536;19.074;2022-11-20T05:31:39;99919.50;;;1.99;89.38
75794;BME280;64418;47.536;19.074;2022-11-20T05:34:04;99922.00;;;2.01;89.48
75794;BME280;64418;47.536;19.074;2022-11-20T05:36:30;99918.66;;;1.99;89.14
75794;BME280;64418;47.536;19.074;2022-11-20T05:38:56;99917.16;;;1.96;88.74
75794;BME280;64418;47.536;19.074;2022-11-20T05:41:22;99917.31;;;1.94;88.63
75794;BME280;64418;47.536;19.074;2022-11-20T05:43:49;99907.28;;;1.88;88.83
75794;BME280;64418;47.536;19.074;2022-11-20T05:46:16;99922.13;;;1.91;88.43
75794;BME280;64418;47.536;19.074;2022-11-20T05:48:44;99923.97;;;1.90;88.67
75794;BME280;64418;47.536;19.074;2022-11-20T05:51:12;99926.63;;;1.90;88.68
75794;BME280;64418;47.536;19.074;2022-11-20T05:53:38;99934.66;;;1.90;88.58
75794;BME280;64418;47.536;19.074;2022-11-20T05:56:05;99942.66;;;1.90;88.34
75794;BME280;64418;47.536;19.074;2022-11-20T05:58:32;99932.31;;;1.87;88.33
75794;BME280;64418;47.536;19.074;2022-11-20T06:01:04;99944.34;;;1.91;88.29
75794;BME280;64418;47.536;19.074;2022-11-20T06:03:29;99957.53;;;1.93;88.18
75794;BME280;64418;47.536;19.074;2022-11-20T06:05:58;99952.03;;;1.94;88.35
75794;BME280;64418;47.536;19.074;2022-11-20T06:08:24;99950.19;;;1.95;88.38
75794;BME280;64418;47.536;19.074;2022-11-20T06:10:49;99954.69;;;1.94;88.18
75794;BME280;64418;47.536;19.074;2022-11-20T06:13:15;99959.72;;;1.98;88.50
75794;BME280;64418;47.536;19.074;2022-11-20T06:15:41;99958.03;;;1.97;88.02
75794;BME280;64418;47.536;19.074;2022-11-20T06:18:06;99966.75;;;1.99;88.13
75794;BME280;64418;47.536;19.074;2022-11-20T06:20:32;99958.72;;;1.99;87.96
75794;BME280;64418;47.536;19.074;2022-11-20T06:22:59;99948.69;;;2.01;88.02
75794;BME280;64418;47.536;19.074;2022-11-20T06:25:25;99944.03;;;2.03;88.23
75794;BME280;64418;47.536;19.074;2022-11-20T06:27:51;99938.69;;;2.03;88.00
75794;BME280;64418;47.536;19.074;2022-11-20T06:30:17;99944.88;;;2.03;88.16
75794;BME280;64418;47.536;19.074;2022-11-20T06:32:43;99948.69;;;2.01;87.77
75794;BME280;64418;47.536;19.074;2022-11-20T06:35:09;99947.87;;;2.00;87.92
75794;BME280;64418;47.536;19.074;2022-11-20T06:37:35;99956.72;;;2.01;88.15
75794;BME280;64418;47.536;19.074;2022-11-20T06:40:02;99975.41;;;2.01;88.13
75794;BME280;64418;47.536;19.074;2022-11-20T06:42:28;99975.41;;;2.01;87.70
75794;BME280;64418;47.536;19.074;2022-11-20T06:44:54;99989.47;;;2.03;87.82
75794;BME280;64418;47.536;19.074;2022-11-20T06:47:19;99987.78;;;2.02;87.29
75794;BME280;64418;47.536;19.074;2022-11-20T06:49:45;99988.47;;;2.04;87.57
75794;BME280;64418;47.536;19.074;2022-11-20T06:52:11;99992.78;;;2.05;87.72
75794;BME280;64418;47.536;19.074;2022-11-20T06:54:37;99987.44;;;2.05;87.01
75794;BME280;64418;47.536;19.074;2022-11-20T06:57:05;99987.81;;;2.10;87.63
75794;BME280;64418;47.536;19.074;2022-11-20T06:59:31;99984.66;;;2.14;88.02
75794;BME280;64418;47.536;19.074;2022-11-20T07:01:56;99978.47;;;2.14;87.21
75794;BME280;64418;47.536;19.074;2022-11-20T07:04:22;99981.31;;;2.20;87.40
75794;BME280;64418;47.536;19.074;2022-11-20T07:06:48;99974.81;;;2.23;87.38
75794;BME280;64418;47.536;19.074;2022-11-20T07:09:13;99974.50;;;2.26;87.42
75794;BME280;64418;47.536;19.074;2022-11-20T07:11:39;99970.34;;;2.31;87.70
75794;BME280;64418;47.536;19.074;2022-11-20T07:14:06;99971.84;;;2.34;87.39
75794;BME280;64418;47.536;19.074;2022-11-20T07:16:32;99976.69;;;2.38;87.18
75794;BME280;64418;47.536;19.074;2022-11-20T07:18:59;99972.19;;;2.39;86.87
75794;BME280;64418;47.536;19.074;2022-11-20T07:21:24;99977.87;;;2.44;87.01
75794;BME280;64418;47.536;19.074;2022-11-20T07:23:50;99985.56;;;2.47;87.00
75794;BME280;64418;47.536;19.074;2022-11-20T07:26:16;99996.94;;;2.49;86.85
75794;BME280;64418;47.536;19.074;2022-11-20T07:28:44;100010.66;;;2.54;87.16
75794;BME280;64418;47.536;19.074;2022-11-20T07:31:12;99999.09;;;2.54;86.88
75794;BME280;64418;47.536;19.074;2022-11-20T07:33:38;99998.25;;;2.53;86.99
75794;BME280;64418;47.536;19.074;2022-11-20T07:36:05;100009.28;;;2.50;86.40
75794;BME280;64418;47.536;19.074;2022-11-20T07:38:30;100007.31;;;2.52;87.37
75794;BME280;64418;47.536;19.074;2022-11-20T07:40:57;100014.00;;;2.56;87.57
75794;BME280;64418;47.536;19.074;2022-11-20T07:43:23;100014.16;;;2.55;87.48
75794;BME280;64418;47.536;19.074;2022-11-20T07:45:49;100000.44;;;2.58;87.74
75794;BME280;64418;47.536;19.074;2022-11-20T07:48:17;100006.31;;;2.61;87.83
75794;BME280;64418;47.536;19.074;2022-11-20T07:50:43;100001.66;;;2.63;87.63
75794;BME280;64418;47.536;19.074;2022-11-20T07:53:09;100005.47;;;2.69;88.18
75794;BME280;64418;47.536;19.074;2022-11-20T07:55:35;100010.69;;;2.70;87.77
75794;BME280;64418;47.536;19.074;2022-11-20T07:58:00;100009.00;;;2.77;88.31
75794;BME280;64418;47.536;19.074;2022-11-20T08:00:26;100014.72;;;2.82;88.40
75794;BME280;64418;47.536;19.074;2022-11-20T08:02:52;100012.53;;;2.86;87.96
75794;BME280;64418;47.536;19.074;2022-11-20T08:05:20;100021.06;;;2.89;87.93
75794;BME280;64418;47.536;19.074;2022-11-20T08:07:45;100012.06;;;2.90;87.40
75794;BME280;64418;47.536;19.074;2022-11-20T08:10:14;99991.16;;;2.94;87.44
75794;BME280;64418;47.536;19.074;2022-11-20T08:12:44;99992.31;;;3.00;87.72
75794;BME280;64418;47.536;19.074;2022-11-20T08:15:10;99989.12;;;3.04;87.23
75794;BME280;64418;47.536;19.074;2022-11-20T08:17:36;99991.31;;;3.09;87.17
75794;BME280;64418;47.536;19.074;2022-11-20T08:20:02;99990.62;;;3.15;87.18
75794;BME280;64418;47.536;19.074;2022-11-20T08:22:31;99996.47;;;3.18;86.81
75794;BME280;64418;47.536;19.074;2022-11-20T08:24:57;99996.97;;;3.22;86.44
75794;BME280;64418;47.536;19.074;2022-11-20T08:27:22;99998.16;;;3.27;86.12
75794;BME280;64418;47.536;19.074;2022-11-20T08:29:49;100001.97;;;3.33;86.42
75794;BME280;64418;47.536;19.074;2022-11-20T08:32:16;99995.13;;;3.38;87.25
75794;BME280;64418;47.536;19.074;2022-11-20T08:34:43;99995.63;;;3.42;87.20
75794;BME280;64418;47.536;19.074;2022-11-20T08:37:10;99987.44;;;3.44;86.94
75794;BME280;64418;47.536;19.074;2022-11-20T08:39:37;99986.88;;;3.48;86.89
75794;BME280;64418;47.536;19.074;2022-11-20T08:42:06;99988.91;;;3.54;87.03
75794;BME280;64418;47.536;19.074;2022-11-20T08:44:32;99998.09;;;3.60;86.86
75794;BME280;64418;47.536;19.074;2022-11-20T08:46:58;100003.94;;;3.63;86.70
75794;BME280;64418;47.536;19.074;2022-11-20T08:49:23;100011.31;;;3.69;87.07
75794;BME280;64418;47.536;19.074;2022-11-20T08:51:50;100006.44;;;3.73;87.28
75794;BME280;64418;47.536;19.074;2022-11-20T08:54:16;100010.59;;;3.75;86.74
75794;BME280;64418;47.536;19.074;2022-11-20T08:56:44;100002.22;;;3.78;86.47
75794;BME280;64418;47.536;19.074;2022-11-20T08:59:09;100006.22;;;3.82;86.27
75794;BME280;64418;47.536;19.074;2022-11-20T09:01:35;100009.38;;;3.86;86.31
75794;BME280;64418;47.536;19.074;2022-11-20T09:04:01;100008.22;;;3.88;85.93
75794;BME280;64418;47.536;19.074;2022-11-20T09:06:28;100015.06;;;3.91;86.90
75794;BME280;64418;47.536;19.074;2022-11-20T09:08:54;100019.75;;;3.89;86.18
75794;BME280;64418;47.536;19.074;2022-11-20T09:11:20;100017.63;;;3.84;85.60
75794;BME280;64418;47.536;19.074;2022-11-20T09:13:48;100017.94;;;3.81;85.69
75794;BME280;64418;47.536;19.074;2022-11-20T09:16:15;100022.00;;;3.77;85.69
75794;BME280;64418;47.536;19.074;2022-11-20T09:18:41;100019.31;;;3.77;86.22
75794;BME280;64418;47.536;19.074;2022-11-20T09:21:11;100025.69;;;3.76;86.41
75794;BME280;64418;47.536;19.074;2022-11-20T09:23:39;100035.38;;;3.77;86.46
75794;BME280;64418;47.536;19.074;2022-11-20T09:26:08;100035.38;;;3.77;86.65
75794;BME280;64418;47.536;19.074;2022-11-20T09:28:34;100033.03;;;3.74;86.11
75794;BME280;64418;47.536;19.074;2022-11-20T09:31:04;100035.72;;;3.74;86.12
75794;BME280;64418;47.536;19.074;2022-11-20T09:33:30;100035.38;;;3.77;86.51
75794;BME280;64418;47.536;19.074;2022-11-20T09:35:56;100032.53;;;3.79;86.48
75794;BME280;64418;47.536;19.074;2022-11-20T09:38:25;100026.66;;;3.83;86.63
75794;BME280;64418;47.536;19.074;2022-11-20T09:40:56;100018.28;;;3.86;86.37
75794;BME280;64418;47.536;19.074;2022-11-20T09:43:29;100021.44;;;3.90;86.39
75794;BME280;64418;47.536;19.074;2022-11-20T09:46:09;100018.25;;;3.95;86.63
75794;BME280;64418;47.536;19.074;2022-11-20T09:48:48;100006.34;;;3.97;86.32
75794;BME280;64418;47.536;19.074;2022-11-20T09:51:28;100013.03;;;4.01;86.24
75794;BME280;64418;47.536;19.074;2022-11-20T09:54:06;100012.50;;;4.06;85.70
75794;BME280;64418;47.536;19.074;2022-11-20T09:56:39;100008.31;;;4.11;85.98
75794;BME280;64418;47.536;19.074;2022-11-20T09:59:07;100007.44;;;4.19;85.83
75794;BME280;64418;47.536;19.074;2022-11-20T10:01:40;99999.41;;;4.19;85.54
75794;BME280;64418;47.536;19.074;2022-11-20T10:04:10;99997.97;;;4.31;85.19
75794;BME280;64418;47.536;19.074;2022-11-20T10:06:41;99992.94;;;4.36;84.73
75794;BME280;64418;47.536;19.074;2022-11-20T10:09:20;99992.75;;;4.37;83.84
75794;BME280;64418;47.536;19.074;2022-11-20T10:11:53;99989.84;;;4.47;83.99
75794;BME280;64418;47.536;19.074;2022-11-20T10:14:30;99975.72;;;4.53;nan
75794;BME280;64418;47.536;19.074;2022-11-20T10:17:28;99980.03;;;4.62;81.83
75794;BME280;64418;47.536;19.074;2022-11-20T10:20:07;99975.94;;;4.74;81.94
75794;BME280;64418;47.536;19.074;2022-11-20T10:22:47;99965.84;;;4.76;81.62
75794;BME280;64418;47.536;19.074;2022-11-20T10:25:21;99963.09;;;4.84;81.28
75794;BME280;64418;47.536;19.074;2022-11-20T10:28:02;99953.25;;;5.00;81.82
75794;BME280;64418;47.536;19.074;2022-11-20T10:30:36;99947.72;;;5.16;80.53
75794;BME280;64418;47.536;19.074;2022-11-20T10:33:11;99940.91;;;5.43;79.40
75794;BME280;64418;47.536;19.074;2022-11-20T10:35:42;99946.47;;;5.70;78.16
75794;BME280;64418;47.536;19.074;2022-11-20T10:38:20;99949.66;;;5.89;77.39
75794;BME280;64418;47.536;19.074;2022-11-20T10:40:49;99947.66;;;6.12;76.60
75794;BME280;64418;47.536;19.074;2022-11-20T10:43:19;99952.09;;;6.34;76.61
75794;BME280;64418;47.536;19.074;2022-11-20T10:45:50;99947.34;;;6.57;74.80
75794;BME280;64418;47.536;19.074;2022-11-20T10:48:22;99950.06;;;6.78;75.39
75794;BME280;64418;47.536;19.074;2022-11-20T10:51:12;99944.97;;;7.11;73.56
75794;BME280;64418;47.536;19.074;2022-11-20T10:53:52;99947.44;;;7.34;72.74
75794;BME280;64418;47.536;19.074;2022-11-20T10:56:21;99944.41;;;7.44;71.99
75794;BME280;64418;47.536;19.074;2022-11-20T10:58:56;99949.56;;;7.45;70.20
75794;BME280;64418;47.536;19.074;2022-11-20T11:01:25;99942.59;;;7.51;70.04
75794;BME280;64418;47.536;19.074;2022-11-20T11:03:53;99951.97;;;7.61;69.86
75794;BME280;64418;47.536;19.074;2022-11-20T11:06:29;99954.44;;;7.63;67.76
75794;BME280;64418;47.536;19.074;2022-11-20T11:09:01;99959.09;;;7.75;68.85
75794;BME280;64418;47.536;19.074;2022-11-20T11:11:29;99973.44;;;7.48;68.74
75794;BME280;64418;47.536;19.074;2022-11-20T11:14:04;99967.47;;;7.25;68.82
75794;BME280;64418;47.536;19.074;2022-11-20T11:16:30;99980.25;;;7.16;70.32
75794;BME280;64418;47.536;19.074;2022-11-20T11:19:05;99973.75;;;7.11;70.91
75794;BME280;64418;47.536;19.074;2022-11-20T11:21:31;99965.03;;;6.88;70.07
75794;BME280;64418;47.536;19.074;2022-11-20T11:24:00;99966.16;;;6.72;71.34
75794;BME280;64418;47.536;19.074;2022-11-20T11:26:30;99962.37;;;6.66;71.20
75794;BME280;64418;47.536;19.074;2022-11-20T11:28:57;99965.63;;;6.62;71.80
75794;BME280;64418;47.536;19.074;2022-11-20T11:31:32;99976.44;;;6.68;71.55
75794;BME280;64418;47.536;19.074;2022-11-20T11:34:08;99977.09;;;6.70;72.16
75794;BME280;64418;47.536;19.074;2022-11-20T11:36:39;99960.38;;;6.75;72.15
75794;BME280;64418;47.536;19.074;2022-11-20T11:39:11;99963.59;;;6.85;71.44
75794;BME280;64418;47.536;19.074;2022-11-20T11:41:37;99957.22;;;6.93;70.24
75794;BME280;64418;47.536;19.074;2022-11-20T11:44:16;99958.25;;;6.92;70.08
75794;BME280;64418;47.536;19.074;2022-11-20T11:46:51;99949.69;;;6.82;70.00
75794;BME280;64418;47.536;19.074;2022-11-20T11:49:19;99942.38;;;6.75;70.38
75794;BME280;64418;47.536;19.074;2022-11-20T11:51:58;99936.34;;;6.52;72.20
75794;BME280;64418;47.536;19.074;2022-11-20T11:54:28;99938.88;;;6.39;71.80
75794;BME280;64418;47.536;19.074;2022-11-20T11:56:59;99942.00;;;6.21;72.52
75794;BME280;64418;47.536;19.074;2022-11-20T11:59:31;99927.88;;;6.19;73.25
75794;BME280;64418;47.536;19.074;2022-11-20T12:02:01;99928.66;;;6.13;74.02
75794;BME280;64418;47.536;19.074;2022-11-20T12:04:42;99925.06;;;6.06;73.86
75794;BME280;64418;47.536;19.074;2022-11-20T12:07:13;99929.44;;;6.07;74.51
75794;BME280;64418;47.536;19.074;2022-11-20T12:09:49;99927.38;;;6.09;74.28
75794;BME280;64418;47.536;19.074;2022-11-20T12:12:20;99931.16;;;6.15;74.48
75794;BME280;64418;47.536;19.074;2022-11-20T12:14:49;99929.50;;;6.14;74.37
75794;BME280;64418;47.536;19.074;2022-11-20T12:17:15;99930.34;;;6.14;74.38
75794;BME280;64418;47.536;19.074;2022-11-20T12:19:43;99934.81;;;6.07;73.92
75794;BME280;64418;47.536;19.074;2022-11-20T12:22:17;99938.59;;;5.98;74.63
75794;BME280;64418;47.536;19.074;2022-11-20T12:24:53;99930.09;;;5.95;75.02
75794;BME280;64418;47.536;19.074;2022-11-20T12:27:54;99931.16;;;5.86;74.76
75794;BME280;64418;47.536;19.074;2022-11-20T12:30:26;99931.16;;;5.86;75.49
75794;BME280;64418;47.536;19.074;2022-11-20T12:33:18;99922.13;;;5.87;75.78
75794;BME280;64418;47.536;19.074;2022-11-20T12:36:04;99919.50;;;5.78;74.94
75794;BME280;64418;47.536;19.074;2022-11-20T12:38:50;99916.63;;;5.80;75.21
75794;BME280;64418;47.536;19.074;2022-11-20T12:41:27;99912.66;;;5.76;75.62
75794;BME280;64418;47.536;19.074;2022-11-20T12:44:07;99920.72;;;5.76;75.62
75794;BME280;64418;47.536;19.074;2022-11-20T12:46:44;99920.06;;;5.59;75.06
75794;BME280;64418;47.536;19.074;2022-11-20T12:49:27;99920.53;;;5.48;75.52
75794;BME280;64418;47.536;19.074;2022-11-20T12:52:11;99920.25;;;5.43;75.94
75794;BME280;64418;47.536;19.074;2022-11-20T12:55:14;99928.12;;;5.45;76.68
75794;BME280;64418;47.536;19.074;2022-11-20T12:57:46;99931.34;;;5.40;76.65
75794;BME280;64418;47.536;19.074;2022-11-20T13:00:16;99931.19;;;5.42;77.38
75794;BME280;64418;47.536;19.074;2022-11-20T13:05:51;99941.09;;;5.41;76.88